Time;durP1;ratioP1;P1;durP2;ratioP2;P2;SDS_P1;SDS_P2;PMS_P1;PMS_P2;Temp;Humidity;BMP_temperature;BMP_pressure;BME280_temperature;BME280_humidity;BME280_pressure;Samples;Min_cycle;Max_cycle;Signal;HPM_P1;HPM_P2
2023/05/29 00:01:25;;;;;;;;;;;10.10;99.90;;;;;;5016259;28;19972;-85
2023/05/29 00:03:51;;;;;;;;;;;9.90;99.90;;;;;;5022182;28;19925;-85
2023/05/29 00:06:16;;;;;;;;;;;10.50;99.90;;;;;;5012506;28;20359;-86
2023/05/29 00:08:44;;;;;;;;;;;9.90;99.90;;;;;;5023156;28;20000;-86
2023/05/29 00:11:13;;;;;;;;;;;9.90;99.90;;;;;;5013873;28;19932;-85
2023/05/29 00:13:38;;;;;;;;;;;9.80;99.90;;;;;;5033824;28;19991;-87
2023/05/29 00:16:09;;;;;;;;;;;9.90;99.90;;;;;;5009950;28;20386;-85
2023/05/29 00:18:35;;;;;;;;;;;9.90;99.90;;;;;;4997054;28;20370;-85
2023/05/29 00:21:01;;;;;;;;;;;9.80;99.90;;;;;;5011442;28;20302;-85
2023/05/29 00:23:29;;;;;;;;;;;9.60;99.90;;;;;;5006960;28;19929;-86
2023/05/29 00:25:55;;;;;;;;;;;9.70;99.90;;;;;;5028536;28;20039;-86
2023/05/29 00:28:20;;;;;;;;;;;9.70;99.90;;;;;;5012569;28;20023;-86
2023/05/29 00:30:49;;;;;;;;;;;10.10;99.90;;;;;;5012309;28;19928;-86
2023/05/29 00:33:18;;;;;;;;;;;9.60;99.90;;;;;;5010377;28;19940;-87
2023/05/29 00:35:47;;;;;;;;;;;10.10;99.90;;;;;;5027406;28;19987;-85
2023/05/29 00:38:12;;;;;;;;;;;9.80;99.90;;;;;;5022747;28;19936;-86
2023/05/29 00:40:39;;;;;;;;;;;9.80;99.90;;;;;;4991531;28;19929;-86
2023/05/29 00:43:05;;;;;;;;;;;9.70;99.90;;;;;;5030116;28;19947;-85
2023/05/29 00:45:31;;;;;;;;;;;10.00;99.90;;;;;;5014006;28;20007;-85
2023/05/29 00:47:57;;;;;;;;;;;9.80;99.90;;;;;;5030845;28;20024;-86
2023/05/29 00:50:25;;;;;;;;;;;9.70;99.90;;;;;;5019649;28;19925;-85
2023/05/29 00:52:54;;;;;;;;;;;9.80;99.90;;;;;;5032961;28;19940;-85
2023/05/29 00:55:20;;;;;;;;;;;9.60;99.90;;;;;;5025374;28;19939;-85
2023/05/29 00:57:46;;;;;;;;;;;9.70;99.90;;;;;;5021603;28;20023;-86
2023/05/29 01:00:13;;;;;;;;;;;9.60;99.90;;;;;;5021670;28;20426;-85
2023/05/29 01:02:40;;;;;;;;;;;10.60;99.90;;;;;;5022074;28;20004;-87
2023/05/29 01:05:06;;;;;;;;;;;9.50;99.90;;;;;;5018183;28;19933;-85
2023/05/29 01:07:35;;;;;;;;;;;9.90;99.90;;;;;;5018099;28;19925;-86
2023/05/29 01:10:01;;;;;;;;;;;9.70;99.90;;;;;;5021975;28;19932;-86
2023/05/29 01:12:37;;;;;;;;;;;9.90;99.90;;;;;;5020798;28;19924;-86
2023/05/29 01:15:04;;;;;;;;;;;9.40;99.90;;;;;;5027663;28;19974;-86
2023/05/29 01:17:48;;;;;;;;;;;10.10;99.90;;;;;;5022045;28;19925;-86
2023/05/29 01:20:26;;;;;;;;;;;9.30;99.90;;;;;;5030626;28;19928;-86
2023/05/29 01:23:10;;;;;;;;;;;9.30;99.90;;;;;;5021995;28;19931;-87
2023/05/29 01:25:54;;;;;;;;;;;9.30;99.90;;;;;;5037867;28;20007;-85
2023/05/29 01:28:21;;;;;;;;;;;9.30;99.90;;;;;;5037915;28;20322;-85
2023/05/29 01:30:47;;;;;;;;;;;9.30;99.90;;;;;;5037301;28;19928;-85
2023/05/29 01:33:13;;;;;;;;;;;9.30;99.90;;;;;;5037962;28;19978;-85
2023/05/29 01:35:38;;;;;;;;;;;9.30;99.90;;;;;;5037642;28;19924;-85
2023/05/29 01:38:04;;;;;;;;;;;9.30;99.90;;;;;;5048427;28;19931;-86
2023/05/29 01:40:30;;;;;;;;;;;9.30;99.90;;;;;;5037419;28;19925;-85
2023/05/29 01:42:55;;;;;;;;;;;9.30;99.90;;;;;;5033124;28;19925;-86
2023/05/29 01:45:21;;;;;;;;;;;9.30;99.90;;;;;;5034022;28;19970;-85
2023/05/29 01:47:47;;;;;;;;;;;9.30;99.90;;;;;;5016013;28;20031;-86
2023/05/29 01:50:14;;;;;;;;;;;9.40;99.90;;;;;;5031469;28;19925;-86
2023/05/29 01:52:40;;;;;;;;;;;9.50;99.90;;;;;;5021415;28;20279;-86
2023/05/29 01:55:06;;;;;;;;;;;9.50;99.90;;;;;;5037799;28;19935;-86
2023/05/29 01:57:32;;;;;;;;;;;9.40;99.90;;;;;;5034959;28;19933;-85
2023/05/29 01:59:58;;;;;;;;;;;9.50;99.90;;;;;;5037153;28;20020;-86
2023/05/29 02:02:23;;;;;;;;;;;9.50;99.90;;;;;;5005284;28;19924;-86
2023/05/29 02:04:49;;;;;;;;;;;9.50;99.90;;;;;;5019786;28;19943;-86
2023/05/29 02:07:15;;;;;;;;;;;9.40;99.90;;;;;;5037760;28;19929;-85
2023/05/29 02:09:41;;;;;;;;;;;9.40;99.90;;;;;;5037001;28;20426;-85
2023/05/29 02:12:07;;;;;;;;;;;9.40;99.90;;;;;;5020382;28;20023;-85
2023/05/29 02:14:33;;;;;;;;;;;9.50;99.90;;;;;;5034912;28;19925;-86
2023/05/29 02:16:59;;;;;;;;;;;9.40;99.90;;;;;;5018608;28;20327;-86
2023/05/29 02:19:27;;;;;;;;;;;9.40;99.90;;;;;;5030098;28;19929;-86
2023/05/29 02:21:53;;;;;;;;;;;9.30;99.90;;;;;;5009418;28;20420;-86
2023/05/29 02:24:18;;;;;;;;;;;9.30;99.90;;;;;;5023111;28;20111;-85
2023/05/29 02:26:45;;;;;;;;;;;9.30;99.90;;;;;;5010558;28;20333;-85
2023/05/29 02:29:11;;;;;;;;;;;9.20;99.90;;;;;;5045347;28;20003;-85
2023/05/29 02:31:36;;;;;;;;;;;9.30;99.90;;;;;;5032970;28;20434;-85
2023/05/29 02:34:02;;;;;;;;;;;9.30;99.90;;;;;;5016319;28;19925;-86
2023/05/29 02:36:27;;;;;;;;;;;9.30;99.90;;;;;;5015432;28;19964;-85
2023/05/29 02:38:53;;;;;;;;;;;9.30;99.90;;;;;;5036510;28;19931;-85
2023/05/29 02:41:19;;;;;;;;;;;9.20;99.90;;;;;;5037181;28;19925;-85
2023/05/29 02:43:44;;;;;;;;;;;9.20;99.90;;;;;;5036308;28;19932;-86
2023/05/29 02:46:10;;;;;;;;;;;9.10;99.90;;;;;;5020700;28;19986;-86
2023/05/29 02:48:36;;;;;;;;;;;9.10;99.90;;;;;;5019407;28;19933;-86
2023/05/29 02:51:01;;;;;;;;;;;9.00;99.90;;;;;;5036846;28;19925;-86
2023/05/29 02:53:27;;;;;;;;;;;9.00;99.90;;;;;;5021265;28;19978;-86
2023/05/29 02:55:52;;;;;;;;;;;9.00;99.90;;;;;;5036626;28;19924;-86
2023/05/29 02:58:18;;;;;;;;;;;8.90;99.90;;;;;;5036970;28;20335;-86
2023/05/29 03:00:44;;;;;;;;;;;8.90;99.90;;;;;;5038133;28;19931;-85
2023/05/29 03:03:09;;;;;;;;;;;8.90;99.90;;;;;;5019720;28;19925;-86
2023/05/29 03:05:35;;;;;;;;;;;8.80;99.90;;;;;;5019682;28;20015;-85
2023/05/29 03:08:00;;;;;;;;;;;8.80;99.90;;;;;;5020055;28;19933;-86
2023/05/29 03:10:26;;;;;;;;;;;8.80;99.90;;;;;;5035638;28;19968;-86
2023/05/29 03:12:52;;;;;;;;;;;8.70;99.90;;;;;;5036146;28;19932;-90
2023/05/29 03:15:19;;;;;;;;;;;8.70;99.90;;;;;;5032833;28;19925;-85
2023/05/29 03:17:45;;;;;;;;;;;8.80;99.90;;;;;;4991690;28;19996;-86
2023/05/29 03:20:11;;;;;;;;;;;8.80;99.90;;;;;;5034908;28;20338;-85
2023/05/29 03:22:37;;;;;;;;;;;8.70;99.90;;;;;;5000632;28;20008;-86
2023/05/29 03:25:03;;;;;;;;;;;8.80;99.90;;;;;;5034617;28;20007;-86
2023/05/29 03:27:29;;;;;;;;;;;8.90;99.90;;;;;;5036409;28;20308;-85
2023/05/29 03:29:55;;;;;;;;;;;9.00;99.90;;;;;;5035853;28;19975;-86
2023/05/29 03:32:20;;;;;;;;;;;9.00;99.90;;;;;;5019166;28;19933;-85
2023/05/29 03:34:48;;;;;;;;;;;9.20;99.90;;;;;;5031019;28;19968;-85
2023/05/29 03:37:13;;;;;;;;;;;9.30;99.90;;;;;;5036458;28;19925;-85
2023/05/29 03:39:39;;;;;;;;;;;9.30;99.90;;;;;;5035491;28;19977;-85
2023/05/29 03:42:05;;;;;;;;;;;9.30;99.90;;;;;;5019622;28;20015;-85
2023/05/29 03:44:30;;;;;;;;;;;9.40;99.90;;;;;;5010654;28;19925;-86
2023/05/29 03:46:56;;;;;;;;;;;9.40;99.90;;;;;;5035521;28;20350;-86
2023/05/29 03:49:21;;;;;;;;;;;9.40;99.90;;;;;;5051002;28;19956;-86
2023/05/29 03:51:47;;;;;;;;;;;9.40;99.90;;;;;;5041323;28;19925;-86
2023/05/29 03:54:13;;;;;;;;;;;9.50;99.90;;;;;;5019012;28;20371;-84
2023/05/29 03:56:38;;;;;;;;;;;9.50;99.90;;;;;;5026882;28;20267;-85
2023/05/29 03:59:04;;;;;;;;;;;9.50;99.90;;;;;;5020003;28;20333;-85
2023/05/29 04:01:29;;;;;;;;;;;9.60;99.90;;;;;;5031328;28;19947;-86
2023/05/29 04:03:55;;;;;;;;;;;9.60;99.90;;;;;;5035523;28;19924;-85
2023/05/29 04:06:21;;;;;;;;;;;9.60;99.90;;;;;;5034855;28;19940;-85
2023/05/29 04:08:47;;;;;;;;;;;9.80;99.90;;;;;;5012315;28;19943;-86
2023/05/29 04:11:14;;;;;;;;;;;9.80;99.90;;;;;;5030416;28;20021;-85
2023/05/29 04:13:40;;;;;;;;;;;10.90;99.90;;;;;;5023380;28;20360;-86
2023/05/29 04:16:05;;;;;;;;;;;9.90;99.90;;;;;;5010805;28;19925;-85
2023/05/29 04:18:31;;;;;;;;;;;9.80;99.90;;;;;;5015129;28;20323;-85
2023/05/29 04:20:59;;;;;;;;;;;9.90;99.90;;;;;;5008790;28;19932;-86
2023/05/29 04:23:25;;;;;;;;;;;9.90;99.90;;;;;;5034519;28;20290;-85
2023/05/29 04:25:50;;;;;;;;;;;9.90;99.90;;;;;;5042481;28;19933;-85
2023/05/29 04:28:16;;;;;;;;;;;9.90;99.90;;;;;;5027682;28;19941;-85
2023/05/29 04:30:42;;;;;;;;;;;10.00;99.90;;;;;;5018644;28;19925;-86
2023/05/29 04:33:12;;;;;;;;;;;10.40;99.90;;;;;;5018192;28;20417;-85
2023/05/29 04:35:38;;;;;;;;;;;10.00;99.90;;;;;;5029543;28;19928;-86
2023/05/29 04:38:07;;;;;;;;;;;10.00;99.90;;;;;;5017205;28;19936;-88
2023/05/29 04:40:33;;;;;;;;;;;10.00;99.90;;;;;;5033163;28;19931;-88
2023/05/29 04:43:00;;;;;;;;;;;10.10;99.90;;;;;;5024181;28;19929;-89
2023/05/29 04:45:25;;;;;;;;;;;10.10;99.90;;;;;;5018341;28;19924;-87
2023/05/29 04:47:53;;;;;;;;;;;10.20;99.90;;;;;;4999240;28;20004;-87
2023/05/29 04:50:19;;;;;;;;;;;10.30;99.90;;;;;;5014482;28;20462;-87
2023/05/29 04:52:44;;;;;;;;;;;10.30;99.90;;;;;;5017645;28;20011;-86
2023/05/29 04:55:10;;;;;;;;;;;10.30;99.90;;;;;;5033903;28;19932;-87
2023/05/29 04:57:36;;;;;;;;;;;10.30;99.90;;;;;;5018000;28;19925;-87
2023/05/29 05:00:09;;;;;;;;;;;10.30;99.90;;;;;;5018198;28;19925;-90
2023/05/29 05:02:40;;;;;;;;;;;8.00;99.90;;;;;;5023295;28;19976;-90
2023/05/29 05:05:16;;;;;;;;;;;10.40;99.90;;;;;;5015708;28;19975;-91
2023/05/29 05:08:02;;;;;;;;;;;9.20;99.90;;;;;;5035295;28;19928;-89
2023/05/29 05:10:30;;;;;;;;;;;10.50;99.90;;;;;;5033508;28;19999;-89
2023/05/29 05:13:01;;;;;;;;;;;10.50;99.90;;;;;;5034606;28;19925;-90
2023/05/29 05:15:30;;;;;;;;;;;9.20;99.90;;;;;;5017066;28;19932;-88
2023/05/29 05:17:55;;;;;;;;;;;10.90;99.90;;;;;;5017631;28;19925;-90
2023/05/29 05:20:24;;;;;;;;;;;10.80;99.90;;;;;;5016590;28;20326;-88
2023/05/29 05:22:49;;;;;;;;;;;10.60;99.90;;;;;;5014501;28;20423;-89
2023/05/29 05:25:17;;;;;;;;;;;10.70;99.90;;;;;;5009217;28;20015;-89
2023/05/29 05:27:48;;;;;;;;;;;10.60;99.90;;;;;;5002649;28;19929;-88
2023/05/29 05:30:16;;;;;;;;;;;10.80;99.90;;;;;;5017557;28;20370;-89
2023/05/29 05:32:42;;;;;;;;;;;9.10;99.90;;;;;;5017686;28;20386;-89
2023/05/29 05:35:11;;;;;;;;;;;10.80;99.90;;;;;;5015755;28;19924;-88
2023/05/29 05:37:37;;;;;;;;;;;10.90;99.90;;;;;;5034410;28;19933;-88
2023/05/29 05:40:07;;;;;;;;;;;10.90;99.90;;;;;;5018714;28;19925;-88
2023/05/29 05:42:33;;;;;;;;;;;11.20;99.90;;;;;;5020987;28;20314;-89
2023/05/29 05:44:59;;;;;;;;;;;8.90;99.90;;;;;;5019547;28;19929;-87
2023/05/29 05:47:27;;;;;;;;;;;11.10;99.90;;;;;;5037367;28;19932;-88
2023/05/29 05:49:55;;;;;;;;;;;11.30;99.90;;;;;;5018341;28;20011;-89
2023/05/29 05:52:22;;;;;;;;;;;11.20;99.90;;;;;;5012356;28;20042;-88
2023/05/29 05:54:50;;;;;;;;;;;11.30;99.90;;;;;;5014750;28;20197;-85
2023/05/29 05:57:16;;;;;;;;;;;11.20;99.90;;;;;;5019417;28;19929;-88
2023/05/29 05:59:44;;;;;;;;;;;14.30;99.90;;;;;;5020050;28;19932;-86
2023/05/29 06:02:12;;;;;;;;;;;11.40;99.90;;;;;;5027041;28;19951;-87
2023/05/29 06:04:38;;;;;;;;;;;11.30;99.90;;;;;;5009900;28;20019;-90
2023/05/29 06:07:24;;;;;;;;;;;11.30;99.90;;;;;;5020172;28;20016;-90
2023/05/29 06:09:54;;;;;;;;;;;11.40;99.90;;;;;;5019705;28;19925;-88
2023/05/29 06:12:22;;;;;;;;;;;11.60;99.90;;;;;;5018217;28;19932;-89
2023/05/29 06:14:48;;;;;;;;;;;11.70;99.90;;;;;;5012469;28;19951;-88
2023/05/29 06:17:14;;;;;;;;;;;11.90;99.90;;;;;;5000687;28;19925;-88
2023/05/29 06:19:42;;;;;;;;;;;11.90;99.90;;;;;;5033889;28;19982;-88
2023/05/29 06:22:10;;;;;;;;;;;12.00;99.90;;;;;;5031100;28;19979;-87
2023/05/29 06:24:38;;;;;;;;;;;11.90;99.90;;;;;;5008325;28;19932;-85
2023/05/29 06:27:04;;;;;;;;;;;12.00;99.90;;;;;;5019567;28;20007;-87
2023/05/29 06:29:30;;;;;;;;;;;12.00;99.90;;;;;;5014069;28;20371;-88
2023/05/29 06:31:58;;;;;;;;;;;12.10;99.90;;;;;;5023527;28;19932;-87
2023/05/29 06:34:24;;;;;;;;;;;11.90;99.90;;;;;;5012444;28;19925;-87
2023/05/29 06:36:52;;;;;;;;;;;12.20;99.90;;;;;;5034542;28;19978;-86
2023/05/29 06:39:21;;;;;;;;;;;12.30;99.90;;;;;;5034905;28;20050;-87
2023/05/29 06:41:46;;;;;;;;;;;10.60;99.90;;;;;;5025147;28;19935;-87
2023/05/29 06:44:12;;;;;;;;;;;11.90;99.90;;;;;;5031905;28;20231;-89
2023/05/29 06:46:43;;;;;;;;;;;11.90;99.90;;;;;;5011183;28;20310;-88
2023/05/29 06:49:08;;;;;;;;;;;10.70;99.90;;;;;;5030814;28;20105;-88
2023/05/29 06:51:35;;;;;;;;;;;12.40;99.90;;;;;;5019576;28;20066;-89
2023/05/29 06:54:06;;;;;;;;;;;11.90;99.90;;;;;;5030240;28;20013;-89
2023/05/29 06:56:34;;;;;;;;;;;11.90;99.90;;;;;;5034817;28;19932;-89
2023/05/29 06:59:02;;;;;;;;;;;11.90;99.90;;;;;;5017453;28;19925;-90
2023/05/29 07:01:28;;;;;;;;;;;12.30;99.90;;;;;;5014693;28;19931;-88
2023/05/29 07:03:53;;;;;;;;;;;12.20;99.90;;;;;;5032171;28;20336;-85
2023/05/29 07:06:20;;;;;;;;;;;12.20;99.90;;;;;;5015940;28;19925;-86
2023/05/29 07:08:45;;;;;;;;;;;12.20;99.90;;;;;;5013659;28;19952;-88
2023/05/29 07:11:11;;;;;;;;;;;12.60;99.90;;;;;;5019839;28;20351;-86
2023/05/29 07:13:37;;;;;;;;;;;12.70;99.90;;;;;;5012936;28;19945;-88
2023/05/29 07:16:02;;;;;;;;;;;12.10;99.90;;;;;;5014592;28;19925;-85
2023/05/29 07:18:36;;;;;;;;;;;12.20;99.90;;;;;;5013832;28;20026;-89
2023/05/29 07:21:02;;;;;;;;;;;12.50;99.90;;;;;;5029692;28;19932;-87
2023/05/29 07:23:28;;;;;;;;;;;13.40;99.90;;;;;;5027638;28;19929;-85
2023/05/29 07:25:53;;;;;;;;;;;12.40;99.90;;;;;;5039477;28;19932;-86
2023/05/29 07:28:19;;;;;;;;;;;12.40;99.90;;;;;;5015411;28;19925;-87
2023/05/29 07:30:50;;;;;;;;;;;12.50;99.90;;;;;;5022237;28;20254;-88
2023/05/29 07:33:16;;;;;;;;;;;11.40;99.90;;;;;;5019810;28;19933;-91
2023/05/29 07:35:45;;;;;;;;;;;13.10;99.90;;;;;;5013156;28;19925;-87
2023/05/29 07:38:10;;;;;;;;;;;12.60;99.90;;;;;;5010302;28;19925;-85
2023/05/29 07:40:36;;;;;;;;;;;12.60;99.90;;;;;;5039513;28;19936;-87
2023/05/29 07:43:12;;;;;;;;;;;11.10;99.90;;;;;;5012451;28;19925;-89
2023/05/29 07:45:38;;;;;;;;;;;11.00;99.90;;;;;;5024841;28;19925;-86
2023/05/29 07:48:04;;;;;;;;;;;12.70;99.90;;;;;;5034741;28;20054;-84
2023/05/29 07:50:32;;;;;;;;;;;13.10;99.90;;;;;;5031324;28;19925;-87
2023/05/29 07:53:06;;;;;;;;;;;12.70;99.90;;;;;;5032179;28;20345;-86
2023/05/29 07:55:35;;;;;;;;;;;13.30;99.90;;;;;;5017133;28;20326;-88
2023/05/29 07:58:04;;;;;;;;;;;12.90;99.90;;;;;;5016149;28;19951;-86
2023/05/29 08:00:29;;;;;;;;;;;12.90;99.90;;;;;;5033992;28;19933;-87
2023/05/29 08:03:02;;;;;;;;;;;13.00;99.90;;;;;;5012383;28;19940;-88
2023/05/29 08:05:37;;;;;;;;;;;13.40;99.90;;;;;;5016735;28;19931;-88
2023/05/29 08:08:05;;;;;;;;;;;13.70;99.90;;;;;;5035754;28;20390;-88
2023/05/29 08:10:33;;;;;;;;;;;13.30;99.90;;;;;;5033054;28;19925;-86
2023/05/29 08:13:02;;;;;;;;;;;14.10;99.90;;;;;;5019238;28;19994;-88
2023/05/29 08:15:27;;;;;;;;;;;13.30;99.90;;;;;;5016505;28;19978;-88
2023/05/29 08:17:53;;;;;;;;;;;13.70;99.90;;;;;;5017528;28;19929;-89
2023/05/29 08:20:19;;;;;;;;;;;13.40;99.90;;;;;;5001926;28;19930;-86
2023/05/29 08:22:47;;;;;;;;;;;14.40;99.90;;;;;;5030664;28;19967;-87
2023/05/29 08:25:15;;;;;;;;;;;13.80;99.90;;;;;;5028934;28;19968;-85
2023/05/29 08:27:41;;;;;;;;;;;13.80;99.90;;;;;;5000303;28;19924;-87
2023/05/29 08:30:06;;;;;;;;;;;12.40;99.90;;;;;;5009743;28;19932;-85
2023/05/29 08:32:32;;;;;;;;;;;13.70;99.90;;;;;;5035303;28;20367;-88
2023/05/29 08:35:01;;;;;;;;;;;12.90;99.90;;;;;;5018787;28;19974;-86
2023/05/29 08:37:26;;;;;;;;;;;13.90;99.90;;;;;;5035410;28;20404;-86
2023/05/29 08:39:54;;;;;;;;;;;14.00;99.90;;;;;;5034455;28;19925;-86
2023/05/29 08:42:32;;;;;;;;;;;13.80;99.90;;;;;;5010731;28;19925;-86
2023/05/29 08:45:02;;;;;;;;;;;13.80;99.90;;;;;;5018650;28;19960;-86
2023/05/29 08:47:30;;;;;;;;;;;13.70;99.90;;;;;;5027768;28;19975;-88
2023/05/29 08:49:58;;;;;;;;;;;13.70;99.90;;;;;;5017685;28;20022;-87
2023/05/29 08:52:27;;;;;;;;;;;13.80;99.90;;;;;;5030937;28;19929;-86
2023/05/29 08:54:54;;;;;;;;;;;13.80;99.90;;;;;;5027904;28;19994;-86
2023/05/29 08:57:20;;;;;;;;;;;13.90;99.90;;;;;;5032833;28;19940;-85
2023/05/29 08:59:49;;;;;;;;;;;15.90;99.90;;;;;;5033206;28;19925;-84
2023/05/29 09:02:15;;;;;;;;;;;14.00;99.90;;;;;;5035256;28;19960;-85
2023/05/29 09:04:43;;;;;;;;;;;12.40;99.90;;;;;;5034375;28;19947;-85
2023/05/29 09:07:09;;;;;;;;;;;12.30;99.90;;;;;;5035324;28;20401;-85
2023/05/29 09:09:35;;;;;;;;;;;14.00;99.90;;;;;;5037708;28;19937;-86
2023/05/29 09:12:06;;;;;;;;;;;14.00;99.90;;;;;;5038924;28;19924;-87
2023/05/29 09:14:36;;;;;;;;;;;14.10;99.90;;;;;;5038472;28;19925;-85
2023/05/29 09:17:03;;;;;;;;;;;14.30;99.90;;;;;;5037521;28;19932;-85
2023/05/29 09:19:28;;;;;;;;;;;14.30;99.90;;;;;;5037716;28;20311;-85
2023/05/29 09:22:03;;;;;;;;;;;14.30;99.90;;;;;;5020950;28;19946;-84
2023/05/29 09:24:29;;;;;;;;;;;14.30;99.90;;;;;;5003821;28;19925;-87
2023/05/29 09:26:56;;;;;;;;;;;14.40;99.90;;;;;;5038611;28;19978;-85
2023/05/29 09:29:22;;;;;;;;;;;14.40;99.90;;;;;;5038406;28;19990;-85
2023/05/29 09:31:50;;;;;;;;;;;14.90;99.90;;;;;;5035975;28;20015;-85
2023/05/29 09:34:16;;;;;;;;;;;14.50;99.90;;;;;;5020764;28;19925;-86
2023/05/29 09:36:41;;;;;;;;;;;14.50;99.90;;;;;;5002700;28;19936;-86
2023/05/29 09:39:09;;;;;;;;;;;14.60;99.90;;;;;;5036067;28;19925;-86
2023/05/29 09:41:42;;;;;;;;;;;14.70;99.90;;;;;;5021181;28;19925;-87
2023/05/29 09:44:10;;;;;;;;;;;14.60;99.90;;;;;;5021486;28;19929;-85
2023/05/29 09:46:36;;;;;;;;;;;14.70;99.90;;;;;;5038536;28;19924;-86
2023/05/29 09:49:04;;;;;;;;;;;15.00;99.90;;;;;;5018915;28;19932;-85
2023/05/29 09:51:30;;;;;;;;;;;13.50;99.90;;;;;;5021947;28;19971;-85
2023/05/29 09:54:00;;;;;;;;;;;15.00;99.90;;;;;;5021511;28;20341;-86
2023/05/29 09:56:28;;;;;;;;;;;14.90;99.90;;;;;;5008799;28;19955;-85
2023/05/29 09:58:56;;;;;;;;;;;14.90;99.90;;;;;;5012138;28;19925;-86
2023/05/29 10:01:25;;;;;;;;;;;15.10;99.90;;;;;;5021836;28;19925;-86
2023/05/29 10:03:50;;;;;;;;;;;13.10;99.90;;;;;;5020493;28;20016;-86
2023/05/29 10:06:20;;;;;;;;;;;15.80;99.90;;;;;;5037307;28;20009;-86
2023/05/29 10:08:50;;;;;;;;;;;14.60;99.90;;;;;;5037651;28;19929;-85
2023/05/29 10:11:24;;;;;;;;;;;15.60;99.90;;;;;;5037182;28;19990;-86
2023/05/29 10:13:51;;;;;;;;;;;14.20;99.90;;;;;;5035474;28;19925;-87
2023/05/29 10:16:19;;;;;;;;;;;15.40;99.90;;;;;;5021227;28;19970;-86
2023/05/29 10:18:49;;;;;;;;;;;15.50;99.90;;;;;;5036613;28;20060;-86
2023/05/29 10:21:15;;;;;;;;;;;15.60;99.90;;;;;;5014663;28;19925;-86
2023/05/29 10:23:42;;;;;;;;;;;15.60;99.90;;;;;;5036067;28;19932;-86
2023/05/29 10:26:18;;;;;;;;;;;15.70;99.90;;;;;;5037575;28;19924;-84
2023/05/29 10:28:46;;;;;;;;;;;16.40;99.90;;;;;;5005998;28;19932;-88
2023/05/29 10:31:17;;;;;;;;;;;15.80;99.90;;;;;;5037366;28;19975;-86
2023/05/29 10:33:45;;;;;;;;;;;15.70;99.90;;;;;;5010284;28;20155;-86
2023/05/29 10:36:39;;;;;;;;;;;15.70;99.90;;;;;;5023784;28;20394;-86
2023/05/29 10:39:05;;;;;;;;;;;16.00;99.90;;;;;;5036657;28;20339;-84
2023/05/29 10:41:39;;;;;;;;;;;15.60;99.90;;;;;;5036885;28;19925;-84
2023/05/29 10:44:27;;;;;;;;;;;15.80;99.90;;;;;;5020071;28;19925;-85
2023/05/29 10:46:59;;;;;;;;;;;15.70;99.90;;;;;;5036940;28;19971;-85
2023/05/29 10:49:25;;;;;;;;;;;15.70;99.90;;;;;;5018786;28;19947;-85
2023/05/29 10:51:51;;;;;;;;;;;15.60;99.90;;;;;;5020437;28;20378;-84
2023/05/29 10:54:19;;;;;;;;;;;16.00;99.90;;;;;;5036064;28;19975;-84
2023/05/29 10:56:59;;;;;;;;;;;15.90;99.90;;;;;;5032388;28;19979;-86
2023/05/29 10:59:30;;;;;;;;;;;16.00;99.90;;;;;;5022693;28;19924;-86
2023/05/29 11:01:57;;;;;;;;;;;16.30;99.90;;;;;;5037096;28;19975;-87
2023/05/29 11:04:26;;;;;;;;;;;16.60;99.90;;;;;;5034707;28;20413;-86
2023/05/29 11:06:55;;;;;;;;;;;16.50;99.90;;;;;;5033196;28;19931;-85
2023/05/29 11:09:34;;;;;;;;;;;16.50;99.90;;;;;;5019337;28;19924;-85
2023/05/29 11:12:13;;;;;;;;;;;16.40;99.90;;;;;;5036571;28;19925;-85
2023/05/29 11:14:47;;;;;;;;;;;16.20;99.90;;;;;;5019762;28;19929;-84
2023/05/29 11:17:31;;;;;;;;;;;16.00;99.90;;;;;;5036700;28;19925;-86
2023/05/29 11:19:57;;;;;;;;;;;16.00;99.90;;;;;;5017192;28;20012;-85
2023/05/29 11:22:28;;;;;;;;;;;15.90;99.90;;;;;;5026117;28;19928;-86
2023/05/29 11:24:56;;;;;;;;;;;15.90;99.90;;;;;;5019655;28;19940;-86
2023/05/29 11:27:23;;;;;;;;;;;15.90;99.90;;;;;;5033090;28;19972;-86
2023/05/29 11:29:48;;;;;;;;;;;15.90;99.90;;;;;;5025493;28;19931;-86
2023/05/29 11:32:16;;;;;;;;;;;15.80;99.90;;;;;;5017107;28;20004;-85
2023/05/29 11:34:44;;;;;;;;;;;15.80;99.90;;;;;;5012716;28;19975;-86
2023/05/29 11:37:11;;;;;;;;;;;15.70;99.90;;;;;;5019657;28;19925;-85
2023/05/29 11:39:37;;;;;;;;;;;15.70;99.90;;;;;;5035733;28;20345;-85
2023/05/29 11:42:02;;;;;;;;;;;15.70;99.90;;;;;;5028137;28;19925;-86
2023/05/29 11:44:28;;;;;;;;;;;15.70;99.90;;;;;;5029582;28;19940;-86
2023/05/29 11:47:02;;;;;;;;;;;15.90;99.50;;;;;;5038062;28;19925;-83
2023/05/29 11:49:34;;;;;;;;;;;16.00;99.50;;;;;;5034779;28;19933;-85
2023/05/29 11:52:06;;;;;;;;;;;16.00;99.10;;;;;;5035467;28;20028;-85
2023/05/29 11:54:35;;;;;;;;;;;16.00;99.00;;;;;;5027795;28;19932;-84
2023/05/29 11:57:02;;;;;;;;;;;16.00;99.30;;;;;;5031120;28;19924;-85
2023/05/29 11:59:33;;;;;;;;;;;15.90;99.70;;;;;;5014173;28;20006;-85
2023/05/29 12:02:02;;;;;;;;;;;15.90;99.90;;;;;;5032118;28;19932;-84
2023/05/29 12:04:28;;;;;;;;;;;16.00;99.20;;;;;;5018329;28;20007;-85
2023/05/29 12:06:53;;;;;;;;;;;16.10;99.90;;;;;;5019186;28;20413;-84
2023/05/29 12:09:25;;;;;;;;;;;16.10;99.80;;;;;;5018698;28;19967;-85
2023/05/29 12:11:51;;;;;;;;;;;16.20;99.30;;;;;;5035744;28;19931;-86
2023/05/29 12:14:17;;;;;;;;;;;16.10;99.90;;;;;;5019835;28;19924;-85
2023/05/29 12:16:42;;;;;;;;;;;16.20;99.80;;;;;;5022022;28;19931;-84
2023/05/29 12:19:08;;;;;;;;;;;16.40;99.60;;;;;;5035006;28;20020;-84
2023/05/29 12:21:34;;;;;;;;;;;16.40;99.70;;;;;;5014577;28;20347;-86
2023/05/29 12:24:00;;;;;;;;;;;16.50;99.20;;;;;;5035314;28;20321;-87
2023/05/29 12:26:26;;;;;;;;;;;16.50;99.30;;;;;;5018861;28;19929;-84
2023/05/29 12:28:52;;;;;;;;;;;16.70;99.00;;;;;;5018668;28;19925;-86
2023/05/29 12:31:39;;;;;;;;;;;16.70;97.80;;;;;;5019065;28;20015;-85
2023/05/29 12:34:08;;;;;;;;;;;16.60;97.80;;;;;;5018229;28;19924;-87
2023/05/29 12:36:33;;;;;;;;;;;16.50;98.00;;;;;;5019084;28;19929;-87
2023/05/29 12:39:00;;;;;;;;;;;16.50;97.80;;;;;;5032816;28;20394;-87
2023/05/29 12:41:32;;;;;;;;;;;16.60;98.70;;;;;;5034803;28;20024;-85
2023/05/29 12:44:00;;;;;;;;;;;16.70;97.80;;;;;;5032280;28;19925;-86
2023/05/29 12:46:26;;;;;;;;;;;16.70;97.10;;;;;;5048159;28;19925;-86
2023/05/29 12:48:58;;;;;;;;;;;16.70;97.00;;;;;;5038096;28;20368;-86
2023/05/29 12:51:25;;;;;;;;;;;16.80;95.80;;;;;;5023236;28;19987;-84
2023/05/29 12:53:50;;;;;;;;;;;16.60;95.70;;;;;;5038333;28;19932;-86
2023/05/29 12:56:16;;;;;;;;;;;16.60;95.40;;;;;;5039253;28;19929;-88
2023/05/29 12:58:42;;;;;;;;;;;16.60;96.30;;;;;;5034055;28;20391;-86
2023/05/29 13:01:12;;;;;;;;;;;16.60;96.00;;;;;;5036102;28;20327;-83
2023/05/29 13:03:37;;;;;;;;;;;16.70;95.50;;;;;;5026931;28;19928;-86
2023/05/29 13:06:03;;;;;;;;;;;16.70;95.90;;;;;;5038849;28;19943;-84
2023/05/29 13:08:29;;;;;;;;;;;16.90;93.40;;;;;;5022649;28;20377;-87
2023/05/29 13:10:54;;;;;;;;;;;16.80;94.70;;;;;;5022762;28;19925;-87
2023/05/29 13:13:22;;;;;;;;;;;16.80;95.20;;;;;;5033852;28;19987;-87
2023/05/29 13:15:47;;;;;;;;;;;17.00;94.90;;;;;;5022799;28;19925;-87
2023/05/29 13:18:13;;;;;;;;;;;17.10;93.60;;;;;;5022314;28;20416;-85
2023/05/29 13:20:38;;;;;;;;;;;17.20;94.00;;;;;;5012918;28;20309;-85
2023/05/29 13:23:04;;;;;;;;;;;17.10;93.50;;;;;;5038305;28;20286;-85
2023/05/29 13:25:30;;;;;;;;;;;17.10;93.10;;;;;;5037620;28;19932;-86
2023/05/29 13:27:55;;;;;;;;;;;17.20;93.70;;;;;;5019966;28;20032;-84
2023/05/29 13:30:22;;;;;;;;;;;17.30;90.80;;;;;;5016573;28;20433;-88
2023/05/29 13:32:47;;;;;;;;;;;17.10;92.10;;;;;;5038362;28;19948;-84
2023/05/29 13:35:13;;;;;;;;;;;17.00;91.40;;;;;;5037526;28;19925;-84
2023/05/29 13:37:38;;;;;;;;;;;17.00;92.50;;;;;;5022201;28;19932;-88
2023/05/29 13:40:05;;;;;;;;;;;17.00;92.90;;;;;;5054244;28;19925;-85
2023/05/29 13:42:30;;;;;;;;;;;17.00;93.40;;;;;;5013905;28;19940;-86
2023/05/29 13:44:56;;;;;;;;;;;17.00;93.70;;;;;;5024282;28;19929;-84
2023/05/29 13:47:22;;;;;;;;;;;17.10;91.90;;;;;;5027042;28;19932;-84
2023/05/29 13:49:47;;;;;;;;;;;17.10;91.60;;;;;;5037280;28;19972;-87
2023/05/29 13:52:13;;;;;;;;;;;16.90;93.30;;;;;;5021632;28;19925;-86
2023/05/29 13:54:39;;;;;;;;;;;16.90;92.90;;;;;;5037149;28;19946;-87
2023/05/29 13:57:05;;;;;;;;;;;16.90;93.10;;;;;;5021316;28;19925;-85
2023/05/29 13:59:32;;;;;;;;;;;16.90;93.30;;;;;;5021726;28;20354;-86
2023/05/29 14:01:57;;;;;;;;;;;17.00;93.60;;;;;;5019146;28;19925;-86
2023/05/29 14:04:23;;;;;;;;;;;16.90;92.40;;;;;;5016175;28;19932;-87
2023/05/29 14:06:49;;;;;;;;;;;17.00;93.00;;;;;;5027903;28;20015;-87
2023/05/29 14:09:15;;;;;;;;;;;16.90;91.50;;;;;;5004898;28;20011;-85
2023/05/29 14:11:40;;;;;;;;;;;16.90;91.10;;;;;;5037196;28;19925;-84
2023/05/29 14:14:06;;;;;;;;;;;16.90;91.00;;;;;;5037181;28;19935;-86
2023/05/29 14:16:32;;;;;;;;;;;16.90;91.40;;;;;;5038209;28;19931;-87
2023/05/29 14:18:58;;;;;;;;;;;16.80;91.90;;;;;;5037435;28;19936;-86
2023/05/29 14:21:24;;;;;;;;;;;16.70;92.50;;;;;;5037655;28;19925;-87
2023/05/29 14:23:49;;;;;;;;;;;16.90;90.10;;;;;;5034934;28;19925;-85